sensor_id;sensor_type;location;lat;lon;timestamp;temperature;humidity
14014;DHT22;49110;52.584;13.408;2023-04-29T00:00:47;14.00;99.00
14014;DHT22;49110;52.584;13.408;2023-04-29T00:01:47;14.00;99.00
14014;DHT22;49110;52.584;13.408;2023-04-29T00:02:48;14.00;99.00
14014;DHT22;49110;52.584;13.408;2023-04-29T00:03:48;14.00;99.00
14014;DHT22;49110;52.584;13.408;2023-04-29T00:04:49;14.00;99.10
14014;DHT22;49110;52.584;13.408;2023-04-29T00:05:50;14.00;99.10
14014;DHT22;49110;52.584;13.408;2023-04-29T00:06:51;14.00;99.10
14014;DHT22;49110;52.584;13.408;2023-04-29T00:07:51;14.10;99.20
14014;DHT22;49110;52.584;13.408;2023-04-29T00:08:52;14.00;99.00
14014;DHT22;49110;52.584;13.408;2023-04-29T00:09:52;14.00;99.00
14014;DHT22;49110;52.584;13.408;2023-04-29T00:10:53;14.00;99.00
14014;DHT22;49110;52.584;13.408;2023-04-29T00:11:54;14.00;99.10
14014;DHT22;49110;52.584;13.408;2023-04-29T00:12:55;14.00;99.10
14014;DHT22;49110;52.584;13.408;2023-04-29T00:13:55;14.00;99.10
14014;DHT22;49110;52.584;13.408;2023-04-29T00:14:56;14.00;99.20
14014;DHT22;49110;52.584;13.408;2023-04-29T00:15:56;14.00;99.10
14014;DHT22;49110;52.584;13.408;2023-04-29T00:16:57;14.00;99.10
14014;DHT22;49110;52.584;13.408;2023-04-29T00:17:58;14.00;99.10
14014;DHT22;49110;52.584;13.408;2023-04-29T00:18:58;14.00;99.10
14014;DHT22;49110;52.584;13.408;2023-04-29T00:19:59;14.00;99.10
14014;DHT22;49110;52.584;13.408;2023-04-29T00:20:59;14.00;99.20
14014;DHT22;49110;52.584;13.408;2023-04-29T00:22:00;14.00;99.20
14014;DHT22;49110;52.584;13.408;2023-04-29T00:23:00;14.00;99.20
14014;DHT22;49110;52.584;13.408;2023-04-29T00:24:01;14.00;99.10
14014;DHT22;49110;52.584;13.408;2023-04-29T00:25:01;14.00;99.10
14014;DHT22;49110;52.584;13.408;2023-04-29T00:26:02;14.00;99.10
14014;DHT22;49110;52.584;13.408;2023-04-29T00:27:02;13.90;99.10
14014;DHT22;49110;52.584;13.408;2023-04-29T00:28:04;13.90;99.20
14014;DHT22;49110;52.584;13.408;2023-04-29T00:29:04;13.90;99.30
14014;DHT22;49110;52.584;13.408;2023-04-29T00:30:06;13.90;99.20
14014;DHT22;49110;52.584;13.408;2023-04-29T00:31:07;13.90;99.20
14014;DHT22;49110;52.584;13.408;2023-04-29T00:32:08;14.00;99.40
14014;DHT22;49110;52.584;13.408;2023-04-29T00:33:08;14.00;99.40
14014;DHT22;49110;52.584;13.408;2023-04-29T00:34:09;14.00;99.30
14014;DHT22;49110;52.584;13.408;2023-04-29T00:35:10;13.90;99.20
14014;DHT22;49110;52.584;13.408;2023-04-29T00:36:10;14.00;99.30
14014;DHT22;49110;52.584;13.408;2023-04-29T00:37:11;14.00;99.30
14014;DHT22;49110;52.584;13.408;2023-04-29T00:38:11;14.00;99.40
14014;DHT22;49110;52.584;13.408;2023-04-29T00:39:12;13.90;99.30
14014;DHT22;49110;52.584;13.408;2023-04-29T00:40:13;13.90;99.30
14014;DHT22;49110;52.584;13.408;2023-04-29T00:41:14;14.00;99.40
14014;DHT22;49110;52.584;13.408;2023-04-29T00:42:15;13.90;99.40
14014;DHT22;49110;52.584;13.408;2023-04-29T00:43:15;13.90;99.40
14014;DHT22;49110;52.584;13.408;2023-04-29T00:44:16;13.90;99.50
14014;DHT22;49110;52.584;13.408;2023-04-29T00:45:16;13.90;99.50
14014;DHT22;49110;52.584;13.408;2023-04-29T00:46:17;13.90;99.60
14014;DHT22;49110;52.584;13.408;2023-04-29T00:47:17;13.80;99.60
14014;DHT22;49110;52.584;13.408;2023-04-29T00:48:18;13.80;99.60
14014;DHT22;49110;52.584;13.408;2023-04-29T00:49:19;13.80;99.60
14014;DHT22;49110;52.584;13.408;2023-04-29T00:50:20;13.80;99.70
14014;DHT22;49110;52.584;13.408;2023-04-29T00:51:21;13.80;99.70
14014;DHT22;49110;52.584;13.408;2023-04-29T00:52:22;13.80;99.80
14014;DHT22;49110;52.584;13.408;2023-04-29T00:53:22;13.80;99.80
14014;DHT22;49110;52.584;13.408;2023-04-29T00:54:23;13.80;99.80
14014;DHT22;49110;52.584;13.408;2023-04-29T00:55:24;13.80;99.80
14014;DHT22;49110;52.584;13.408;2023-04-29T00:56:25;13.80;99.80
14014;DHT22;49110;52.584;13.408;2023-04-29T00:57:29;13.80;99.90
14014;DHT22;49110;52.584;13.408;2023-04-29T00:58:30;13.70;99.90
14014;DHT22;49110;52.584;13.408;2023-04-29T00:59:34;13.80;99.90
14014;DHT22;49110;52.584;13.408;2023-04-29T01:00:35;13.80;99.90
14014;DHT22;49110;52.584;13.408;2023-04-29T01:01:37;13.80;99.90
14014;DHT22;49110;52.584;13.408;2023-04-29T01:02:38;13.80;99.90
14014;DHT22;49110;52.584;13.408;2023-04-29T01:03:38;13.80;99.90
14014;DHT22;49110;52.584;13.408;2023-04-29T01:04:39;13.90;99.90
14014;DHT22;49110;52.584;13.408;2023-04-29T01:05:40;13.90;99.90
14014;DHT22;49110;52.584;13.408;2023-04-29T01:06:48;13.90;99.90
14014;DHT22;49110;52.584;13.408;2023-04-29T01:10:53;13.90;99.90
14014;DHT22;49110;52.584;13.408;2023-04-29T01:13:11;13.90;99.90
14014;DHT22;49110;52.584;13.408;2023-04-29T01:14:13;13.80;99.90
14014;DHT22;49110;52.584;13.408;2023-04-29T01:15:29;13.80;99.90
14014;DHT22;49110;52.584;13.408;2023-04-29T01:16:48;13.80;99.90
14014;DHT22;49110;52.584;13.408;2023-04-29T01:18:19;13.70;99.90
14014;DHT22;49110;52.584;13.408;2023-04-29T01:19:44;13.70;99.90
14014;DHT22;49110;52.584;13.408;2023-04-29T01:20:46;13.70;99.90
14014;DHT22;49110;52.584;13.408;2023-04-29T01:21:48;13.70;99.90
14014;DHT22;49110;52.584;13.408;2023-04-29T01:22:48;13.60;99.90
14014;DHT22;49110;52.584;13.408;2023-04-29T01:23:49;13.60;99.90
14014;DHT22;49110;52.584;13.408;2023-04-29T01:24:55;13.70;99.90
14014;DHT22;49110;52.584;13.408;2023-04-29T01:25:56;13.70;99.90
14014;DHT22;49110;52.584;13.408;2023-04-29T01:27:04;13.70;99.90
14014;DHT22;49110;52.584;13.408;2023-04-29T01:30:56;13.70;99.90
14014;DHT22;49110;52.584;13.408;2023-04-29T01:32:08;13.60;99.90
14014;DHT22;49110;52.584;13.408;2023-04-29T01:34:38;13.60;99.90
14014;DHT22;49110;52.584;13.408;2023-04-29T01:37:13;13.50;99.90
14014;DHT22;49110;52.584;13.408;2023-04-29T01:40:17;13.50;99.90
14014;DHT22;49110;52.584;13.408;2023-04-29T01:41:42;13.50;99.90
14014;DHT22;49110;52.584;13.408;2023-04-29T01:43:03;13.40;99.90
14014;DHT22;49110;52.584;13.408;2023-04-29T01:44:07;13.40;99.90
14014;DHT22;49110;52.584;13.408;2023-04-29T01:45:10;13.40;99.90
14014;DHT22;49110;52.584;13.408;2023-04-29T01:46:12;13.40;99.90
14014;DHT22;49110;52.584;13.408;2023-04-29T01:47:15;13.40;99.90
14014;DHT22;49110;52.584;13.408;2023-04-29T01:48:17;13.40;99.90
14014;DHT22;49110;52.584;13.408;2023-04-29T01:49:25;13.40;99.90
14014;DHT22;49110;52.584;13.408;2023-04-29T01:50:26;13.30;99.90
14014;DHT22;49110;52.584;13.408;2023-04-29T01:51:26;13.30;99.90
14014;DHT22;49110;52.584;13.408;2023-04-29T01:52:27;13.40;99.90
14014;DHT22;49110;52.584;13.408;2023-04-29T01:53:28;13.40;99.90
14014;DHT22;49110;52.584;13.408;2023-04-29T01:54:28;13.40;99.90
14014;DHT22;49110;52.584;13.408;2023-04-29T01:55:29;13.40;99.90
14014;DHT22;49110;52.584;13.408;2023-04-29T01:56:29;13.40;99.90
14014;DHT22;49110;52.584;13.408;2023-04-29T01:57:30;13.40;99.90
14014;DHT22;49110;52.584;13.408;2023-04-29T01:58:30;13.40;99.90
14014;DHT22;49110;52.584;13.408;2023-04-29T01:59:31;13.40;99.90
14014;DHT22;49110;52.584;13.408;2023-04-29T02:00:31;13.40;99.90
14014;DHT22;49110;52.584;13.408;2023-04-29T02:01:31;13.40;99.90
14014;DHT22;49110;52.584;13.408;2023-04-29T02:02:32;13.40;99.90
14014;DHT22;49110;52.584;13.408;2023-04-29T02:03:32;13.40;99.90
14014;DHT22;49110;52.584;13.408;2023-04-29T02:04:33;13.40;99.90
14014;DHT22;49110;52.584;13.408;2023-04-29T02:05:34;13.40;99.90
14014;DHT22;49110;52.584;13.408;2023-04-29T02:06:35;13.40;99.90
14014;DHT22;49110;52.584;13.408;2023-04-29T02:07:36;13.40;99.90
14014;DHT22;49110;52.584;13.408;2023-04-29T02:08:37;13.40;99.90
14014;DHT22;49110;52.584;13.408;2023-04-29T02:09:37;13.40;99.90
14014;DHT22;49110;52.584;13.408;2023-04-29T02:10:38;13.40;99.90
14014;DHT22;49110;52.584;13.408;2023-04-29T02:11:38;13.40;99.90
14014;DHT22;49110;52.584;13.408;2023-04-29T02:12:39;13.30;99.90
14014;DHT22;49110;52.584;13.408;2023-04-29T02:13:40;13.30;99.90
14014;DHT22;49110;52.584;13.408;2023-04-29T02:14:40;13.30;99.90
14014;DHT22;49110;52.584;13.408;2023-04-29T02:15:41;13.30;99.90
14014;DHT22;49110;52.584;13.408;2023-04-29T02:16:44;13.30;99.90
14014;DHT22;49110;52.584;13.408;2023-04-29T02:17:45;13.30;99.90
14014;DHT22;49110;52.584;13.408;2023-04-29T02:18:46;13.30;99.90
14014;DHT22;49110;52.584;13.408;2023-04-29T02:19:46;13.30;99.90
14014;DHT22;49110;52.584;13.408;2023-04-29T02:20:47;13.30;99.90
14014;DHT22;49110;52.584;13.408;2023-04-29T02:21:49;13.30;99.90
14014;DHT22;49110;52.584;13.408;2023-04-29T02:22:50;13.40;99.90
14014;DHT22;49110;52.584;13.408;2023-04-29T02:23:51;13.30;99.90
14014;DHT22;49110;52.584;13.408;2023-04-29T02:24:53;13.30;99.90
14014;DHT22;49110;52.584;13.408;2023-04-29T02:25:54;13.30;99.90
14014;DHT22;49110;52.584;13.408;2023-04-29T02:26:54;13.30;99.90
14014;DHT22;49110;52.584;13.408;2023-04-29T02:27:55;13.30;99.90
14014;DHT22;49110;52.584;13.408;2023-04-29T02:28:55;13.30;99.90
14014;DHT22;49110;52.584;13.408;2023-04-29T02:29:56;13.30;99.90
14014;DHT22;49110;52.584;13.408;2023-04-29T02:30:57;13.40;99.90
14014;DHT22;49110;52.584;13.408;2023-04-29T02:31:57;13.30;99.90
14014;DHT22;49110;52.584;13.408;2023-04-29T02:32:58;13.40;99.90
14014;DHT22;49110;52.584;13.408;2023-04-29T02:33:58;13.30;99.90
14014;DHT22;49110;52.584;13.408;2023-04-29T02:34:59;13.40;99.90
14014;DHT22;49110;52.584;13.408;2023-04-29T02:36:00;13.40;99.90
14014;DHT22;49110;52.584;13.408;2023-04-29T02:37:00;13.40;99.90
14014;DHT22;49110;52.584;13.408;2023-04-29T02:38:01;13.40;99.90
14014;DHT22;49110;52.584;13.408;2023-04-29T02:39:01;13.40;99.90
14014;DHT22;49110;52.584;13.408;2023-04-29T02:40:02;13.40;99.90
14014;DHT22;49110;52.584;13.408;2023-04-29T02:41:02;13.30;99.90
14014;DHT22;49110;52.584;13.408;2023-04-29T02:42:03;13.30;99.90
14014;DHT22;49110;52.584;13.408;2023-04-29T02:43:03;13.40;99.90
14014;DHT22;49110;52.584;13.408;2023-04-29T02:44:04;13.40;99.90
14014;DHT22;49110;52.584;13.408;2023-04-29T02:45:05;13.40;99.90
14014;DHT22;49110;52.584;13.408;2023-04-29T02:46:05;13.40;99.90
14014;DHT22;49110;52.584;13.408;2023-04-29T02:47:06;13.40;99.90
14014;DHT22;49110;52.584;13.408;2023-04-29T02:48:06;13.40;99.90
14014;DHT22;49110;52.584;13.408;2023-04-29T02:49:07;13.40;99.90
14014;DHT22;49110;52.584;13.408;2023-04-29T02:50:07;13.40;99.90
14014;DHT22;49110;52.584;13.408;2023-04-29T02:51:08;13.40;99.90
14014;DHT22;49110;52.584;13.408;2023-04-29T02:52:09;13.40;99.90
14014;DHT22;49110;52.584;13.408;2023-04-29T02:53:09;13.40;99.90
14014;DHT22;49110;52.584;13.408;2023-04-29T02:54:09;13.40;99.90
14014;DHT22;49110;52.584;13.408;2023-04-29T02:55:11;13.40;99.90
14014;DHT22;49110;52.584;13.408;2023-04-29T02:56:11;13.40;99.90
14014;DHT22;49110;52.584;13.408;2023-04-29T02:57:12;13.40;99.90
14014;DHT22;49110;52.584;13.408;2023-04-29T02:58:12;13.40;99.90
14014;DHT22;49110;52.584;13.408;2023-04-29T02:59:12;13.30;99.90
14014;DHT22;49110;52.584;13.408;2023-04-29T03:00:13;13.30;99.90
14014;DHT22;49110;52.584;13.408;2023-04-29T03:01:13;13.30;99.90
14014;DHT22;49110;52.584;13.408;2023-04-29T03:02:14;13.40;99.90
14014;DHT22;49110;52.584;13.408;2023-04-29T03:03:14;13.30;99.90
14014;DHT22;49110;52.584;13.408;2023-04-29T03:04:15;13.30;99.90
14014;DHT22;49110;52.584;13.408;2023-04-29T03:05:15;13.30;99.90
14014;DHT22;49110;52.584;13.408;2023-04-29T03:06:16;13.30;99.90
14014;DHT22;49110;52.584;13.408;2023-04-29T03:07:16;13.30;99.90
14014;DHT22;49110;52.584;13.408;2023-04-29T03:08:17;13.30;99.90
14014;DHT22;49110;52.584;13.408;2023-04-29T03:09:18;13.30;99.90
14014;DHT22;49110;52.584;13.408;2023-04-29T03:10:18;13.30;99.90
14014;DHT22;49110;52.584;13.408;2023-04-29T03:11:19;13.30;99.90
14014;DHT22;49110;52.584;13.408;2023-04-29T03:12:19;13.30;99.90
14014;DHT22;49110;52.584;13.408;2023-04-29T03:13:20;13.30;99.90
14014;DHT22;49110;52.584;13.408;2023-04-29T03:14:20;13.30;99.90
14014;DHT22;49110;52.584;13.408;2023-04-29T03:15:21;13.30;99.90
14014;DHT22;49110;52.584;13.408;2023-04-29T03:16:22;13.30;99.90
14014;DHT22;49110;52.584;13.408;2023-04-29T03:17:22;13.30;99.90
14014;DHT22;49110;52.584;13.408;2023-04-29T03:18:23;13.30;99.90
14014;DHT22;49110;52.584;13.408;2023-04-29T03:19:24;13.30;99.90
14014;DHT22;49110;52.584;13.408;2023-04-29T03:20:24;13.30;99.90
14014;DHT22;49110;52.584;13.408;2023-04-29T03:21:25;13.30;99.90
14014;DHT22;49110;52.584;13.408;2023-04-29T03:22:26;13.30;99.90
14014;DHT22;49110;52.584;13.408;2023-04-29T03:23:27;13.30;99.90
14014;DHT22;49110;52.584;13.408;2023-04-29T03:24:28;13.30;99.90
14014;DHT22;49110;52.584;13.408;2023-04-29T03:25:28;13.30;99.90
14014;DHT22;49110;52.584;13.408;2023-04-29T03:26:29;13.30;99.90
14014;DHT22;49110;52.584;13.408;2023-04-29T03:27:33;13.30;99.90
14014;DHT22;49110;52.584;13.408;2023-04-29T03:28:33;13.30;99.90
14014;DHT22;49110;52.584;13.408;2023-04-29T03:29:34;13.30;99.90
14014;DHT22;49110;52.584;13.408;2023-04-29T03:30:34;13.30;99.90
14014;DHT22;49110;52.584;13.408;2023-04-29T03:31:36;13.30;99.90
14014;DHT22;49110;52.584;13.408;2023-04-29T03:32:36;13.30;99.90
14014;DHT22;49110;52.584;13.408;2023-04-29T03:33:37;13.30;99.90
14014;DHT22;49110;52.584;13.408;2023-04-29T03:34:37;13.30;99.90
14014;DHT22;49110;52.584;13.408;2023-04-29T03:35:38;13.30;99.90
14014;DHT22;49110;52.584;13.408;2023-04-29T03:36:38;13.30;99.90
14014;DHT22;49110;52.584;13.408;2023-04-29T03:37:39;13.30;99.90
14014;DHT22;49110;52.584;13.408;2023-04-29T03:38:40;13.30;99.90
14014;DHT22;49110;52.584;13.408;2023-04-29T03:39:40;13.30;99.90
14014;DHT22;49110;52.584;13.408;2023-04-29T03:40:41;13.30;99.90
14014;DHT22;49110;52.584;13.408;2023-04-29T03:41:42;13.30;99.90
14014;DHT22;49110;52.584;13.408;2023-04-29T03:42:42;13.30;99.90
14014;DHT22;49110;52.584;13.408;2023-04-29T03:43:43;13.30;99.90
14014;DHT22;49110;52.584;13.408;2023-04-29T03:44:43;13.30;99.90
14014;DHT22;49110;52.584;13.408;2023-04-29T03:45:44;13.30;99.90
14014;DHT22;49110;52.584;13.408;2023-04-29T03:46:44;13.30;99.90
14014;DHT22;49110;52.584;13.408;2023-04-29T03:47:45;13.40;99.90
14014;DHT22;49110;52.584;13.408;2023-04-29T03:48:45;13.40;99.90
14014;DHT22;49110;52.584;13.408;2023-04-29T03:49:46;13.40;99.90
14014;DHT22;49110;52.584;13.408;2023-04-29T03:50:46;13.40;99.90
14014;DHT22;49110;52.584;13.408;2023-04-29T03:51:47;13.40;99.90
14014;DHT22;49110;52.584;13.408;2023-04-29T03:52:48;13.40;99.90
14014;DHT22;49110;52.584;13.408;2023-04-29T03:53:49;13.40;99.90
14014;DHT22;49110;52.584;13.408;2023-04-29T03:54:50;13.40;99.90
14014;DHT22;49110;52.584;13.408;2023-04-29T03:55:50;13.40;99.90
14014;DHT22;49110;52.584;13.408;2023-04-29T03:56:51;13.40;99.90
14014;DHT22;49110;52.584;13.408;2023-04-29T03:57:51;13.50;99.90
14014;DHT22;49110;52.584;13.408;2023-04-29T03:58:52;13.40;99.90
14014;DHT22;49110;52.584;13.408;2023-04-29T03:59:52;13.40;99.90
14014;DHT22;49110;52.584;13.408;2023-04-29T04:00:53;13.40;99.90
14014;DHT22;49110;52.584;13.408;2023-04-29T04:01:54;13.50;99.90
14014;DHT22;49110;52.584;13.408;2023-04-29T04:02:54;13.50;99.90
14014;DHT22;49110;52.584;13.408;2023-04-29T04:03:55;13.50;99.90
14014;DHT22;49110;52.584;13.408;2023-04-29T04:04:56;13.50;99.90
14014;DHT22;49110;52.584;13.408;2023-04-29T04:05:58;13.50;99.90
14014;DHT22;49110;52.584;13.408;2023-04-29T04:06:58;13.50;99.90
14014;DHT22;49110;52.584;13.408;2023-04-29T04:08:00;13.50;99.90
14014;DHT22;49110;52.584;13.408;2023-04-29T04:09:00;13.60;99.90
14014;DHT22;49110;52.584;13.408;2023-04-29T04:10:01;13.60;99.90
14014;DHT22;49110;52.584;13.408;2023-04-29T04:11:01;13.60;99.90
14014;DHT22;49110;52.584;13.408;2023-04-29T04:12:02;13.60;99.90
14014;DHT22;49110;52.584;13.408;2023-04-29T04:13:03;13.50;99.90
14014;DHT22;49110;52.584;13.408;2023-04-29T04:14:03;13.50;99.90
14014;DHT22;49110;52.584;13.408;2023-04-29T04:15:05;13.50;99.90
14014;DHT22;49110;52.584;13.408;2023-04-29T04:16:05;13.50;99.90
14014;DHT22;49110;52.584;13.408;2023-04-29T04:17:06;13.50;99.90
14014;DHT22;49110;52.584;13.408;2023-04-29T04:18:07;13.50;99.90
14014;DHT22;49110;52.584;13.408;2023-04-29T04:19:07;13.50;99.90
14014;DHT22;49110;52.584;13.408;2023-04-29T04:20:08;13.50;99.90
14014;DHT22;49110;52.584;13.408;2023-04-29T04:21:10;13.50;99.90
14014;DHT22;49110;52.584;13.408;2023-04-29T04:22:11;13.60;99.90
14014;DHT22;49110;52.584;13.408;2023-04-29T04:23:12;13.50;99.90
14014;DHT22;49110;52.584;13.408;2023-04-29T04:24:12;13.50;99.90
14014;DHT22;49110;52.584;13.408;2023-04-29T04:25:13;13.50;99.90
14014;DHT22;49110;52.584;13.408;2023-04-29T04:26:13;13.60;99.90
14014;DHT22;49110;52.584;13.408;2023-04-29T04:27:14;13.60;99.90
14014;DHT22;49110;52.584;13.408;2023-04-29T04:28:14;13.60;99.90
14014;DHT22;49110;52.584;13.408;2023-04-29T04:29:15;13.70;99.90
14014;DHT22;49110;52.584;13.408;2023-04-29T04:30:16;13.60;99.90
14014;DHT22;49110;52.584;13.408;2023-04-29T04:31:16;13.70;99.90
14014;DHT22;49110;52.584;13.408;2023-04-29T04:32:16;13.60;99.90
14014;DHT22;49110;52.584;13.408;2023-04-29T04:33:17;13.60;99.90
14014;DHT22;49110;52.584;13.408;2023-04-29T04:34:18;13.70;99.90
14014;DHT22;49110;52.584;13.408;2023-04-29T04:35:19;13.70;99.90
14014;DHT22;49110;52.584;13.408;2023-04-29T04:36:19;13.70;99.90
14014;DHT22;49110;52.584;13.408;2023-04-29T04:37:20;13.70;99.90
14014;DHT22;49110;52.584;13.408;2023-04-29T04:38:20;13.70;99.90
14014;DHT22;49110;52.584;13.408;2023-04-29T04:39:24;13.70;99.90
14014;DHT22;49110;52.584;13.408;2023-04-29T04:40:24;13.70;99.90
14014;DHT22;49110;52.584;13.408;2023-04-29T04:41:25;13.70;99.90
14014;DHT22;49110;52.584;13.408;2023-04-29T04:42:25;13.70;99.90
14014;DHT22;49110;52.584;13.408;2023-04-29T04:43:26;13.70;99.90
14014;DHT22;49110;52.584;13.408;2023-04-29T04:44:26;13.70;99.90
14014;DHT22;49110;52.584;13.408;2023-04-29T04:45:27;13.70;99.90
14014;DHT22;49110;52.584;13.408;2023-04-29T04:46:29;13.70;99.90
14014;DHT22;49110;52.584;13.408;2023-04-29T04:47:29;13.70;99.90
14014;DHT22;49110;52.584;13.408;2023-04-29T04:48:30;13.70;99.90
14014;DHT22;49110;52.584;13.408;2023-04-29T04:49:30;13.70;99.90
14014;DHT22;49110;52.584;13.408;2023-04-29T04:50:31;13.70;99.90
14014;DHT22;49110;52.584;13.408;2023-04-29T04:51:31;13.70;99.90
14014;DHT22;49110;52.584;13.408;2023-04-29T04:52:33;13.80;99.90
14014;DHT22;49110;52.584;13.408;2023-04-29T04:53:33;13.80;99.90
14014;DHT22;49110;52.584;13.408;2023-04-29T04:54:34;13.80;99.90
14014;DHT22;49110;52.584;13.408;2023-04-29T04:55:34;13.90;99.90
14014;DHT22;49110;52.584;13.408;2023-04-29T04:56:35;13.80;99.90
14014;DHT22;49110;52.584;13.408;2023-04-29T04:57:37;13.80;99.90
14014;DHT22;49110;52.584;13.408;2023-04-29T04:58:37;13.80;99.90
14014;DHT22;49110;52.584;13.408;2023-04-29T04:59:38;13.80;99.90
14014;DHT22;49110;52.584;13.408;2023-04-29T05:00:43;13.80;99.90
14014;DHT22;49110;52.584;13.408;2023-04-29T05:01:44;13.70;99.90
14014;DHT22;49110;52.584;13.408;2023-04-29T05:02:45;13.70;99.90
14014;DHT22;49110;52.584;13.408;2023-04-29T05:03:45;13.70;99.90
14014;DHT22;49110;52.584;13.408;2023-04-29T05:04:46;13.70;99.90
14014;DHT22;49110;52.584;13.408;2023-04-29T05:05:54;13.70;99.90
14014;DHT22;49110;52.584;13.408;2023-04-29T05:06:55;13.80;99.90
14014;DHT22;49110;52.584;13.408;2023-04-29T05:07:56;13.80;99.90
14014;DHT22;49110;52.584;13.408;2023-04-29T05:08:56;13.80;99.90
14014;DHT22;49110;52.584;13.408;2023-04-29T05:09:57;13.80;99.90
14014;DHT22;49110;52.584;13.408;2023-04-29T05:10:57;13.80;99.90
14014;DHT22;49110;52.584;13.408;2023-04-29T05:11:58;13.80;99.90
14014;DHT22;49110;52.584;13.408;2023-04-29T05:12:58;13.80;99.90
14014;DHT22;49110;52.584;13.408;2023-04-29T05:14:01;13.80;99.90
14014;DHT22;49110;52.584;13.408;2023-04-29T05:15:02;13.80;99.90
14014;DHT22;49110;52.584;13.408;2023-04-29T05:16:05;13.80;99.90
14014;DHT22;49110;52.584;13.408;2023-04-29T05:17:06;13.90;99.90
14014;DHT22;49110;52.584;13.408;2023-04-29T05:18:09;13.90;99.90
14014;DHT22;49110;52.584;13.408;2023-04-29T05:19:10;13.90;99.90
14014;DHT22;49110;52.584;13.408;2023-04-29T05:20:11;13.90;99.90
14014;DHT22;49110;52.584;13.408;2023-04-29T05:21:12;13.90;99.90
14014;DHT22;49110;52.584;13.408;2023-04-29T05:22:13;13.90;99.90
14014;DHT22;49110;52.584;13.408;2023-04-29T05:23:13;13.90;99.90
14014;DHT22;49110;52.584;13.408;2023-04-29T05:24:14;13.90;99.90
14014;DHT22;49110;52.584;13.408;2023-04-29T05:25:15;13.90;99.90
14014;DHT22;49110;52.584;13.408;2023-04-29T05:26:15;13.90;99.90
14014;DHT22;49110;52.584;13.408;2023-04-29T05:27:16;13.90;99.90
14014;DHT22;49110;52.584;13.408;2023-04-29T05:28:16;13.80;99.90
14014;DHT22;49110;52.584;13.408;2023-04-29T05:29:17;13.90;99.90
14014;DHT22;49110;52.584;13.408;2023-04-29T05:30:18;13.90;99.90
14014;DHT22;49110;52.584;13.408;2023-04-29T05:31:18;13.90;99.90
14014;DHT22;49110;52.584;13.408;2023-04-29T05:32:20;13.90;99.90
14014;DHT22;49110;52.584;13.408;2023-04-29T05:33:20;13.90;99.90
14014;DHT22;49110;52.584;13.408;2023-04-29T05:34:21;13.90;99.90
14014;DHT22;49110;52.584;13.408;2023-04-29T05:35:22;13.90;99.90
14014;DHT22;49110;52.584;13.408;2023-04-29T05:36:22;13.90;99.90
14014;DHT22;49110;52.584;13.408;2023-04-29T05:37:23;13.90;99.90
14014;DHT22;49110;52.584;13.408;2023-04-29T05:38:23;13.90;99.90
14014;DHT22;49110;52.584;13.408;2023-04-29T05:39:28;13.90;99.90
14014;DHT22;49110;52.584;13.408;2023-04-29T05:40:28;13.90;99.90
14014;DHT22;49110;52.584;13.408;2023-04-29T05:41:29;13.90;99.90
14014;DHT22;49110;52.584;13.408;2023-04-29T05:42:29;13.80;99.90
14014;DHT22;49110;52.584;13.408;2023-04-29T05:43:30;13.90;99.90
14014;DHT22;49110;52.584;13.408;2023-04-29T05:44:31;13.90;99.90
14014;DHT22;49110;52.584;13.408;2023-04-29T05:45:32;13.90;99.90
14014;DHT22;49110;52.584;13.408;2023-04-29T05:46:32;13.90;99.90
14014;DHT22;49110;52.584;13.408;2023-04-29T05:47:33;13.90;99.90
14014;DHT22;49110;52.584;13.408;2023-04-29T05:48:34;13.90;99.90
14014;DHT22;49110;52.584;13.408;2023-04-29T05:49:35;13.90;99.90
14014;DHT22;49110;52.584;13.408;2023-04-29T05:50:35;13.80;99.90
14014;DHT22;49110;52.584;13.408;2023-04-29T05:51:36;13.80;99.90
14014;DHT22;49110;52.584;13.408;2023-04-29T05:52:37;13.80;99.90
14014;DHT22;49110;52.584;13.408;2023-04-29T05:53:38;13.80;99.90
14014;DHT22;49110;52.584;13.408;2023-04-29T05:54:40;13.80;99.90
14014;DHT22;49110;52.584;13.408;2023-04-29T05:55:40;13.90;99.90
14014;DHT22;49110;52.584;13.408;2023-04-29T05:56:44;13.90;99.90
14014;DHT22;49110;52.584;13.408;2023-04-29T05:57:45;13.90;99.90
14014;DHT22;49110;52.584;13.408;2023-04-29T05:58:45;13.90;99.90
14014;DHT22;49110;52.584;13.408;2023-04-29T05:59:45;13.90;99.90
14014;DHT22;49110;52.584;13.408;2023-04-29T06:00:49;13.90;99.90
14014;DHT22;49110;52.584;13.408;2023-04-29T06:01:49;13.90;99.90
14014;DHT22;49110;52.584;13.408;2023-04-29T06:02:50;13.90;99.90
14014;DHT22;49110;52.584;13.408;2023-04-29T06:03:50;14.00;99.90
14014;DHT22;49110;52.584;13.408;2023-04-29T06:04:51;14.00;99.90
14014;DHT22;49110;52.584;13.408;2023-04-29T06:05:51;13.90;99.90
14014;DHT22;49110;52.584;13.408;2023-04-29T06:06:53;13.90;99.90
14014;DHT22;49110;52.584;13.408;2023-04-29T06:07:55;13.90;99.90
14014;DHT22;49110;52.584;13.408;2023-04-29T06:08:56;13.90;99.90
14014;DHT22;49110;52.584;13.408;2023-04-29T06:09:57;13.90;99.90
14014;DHT22;49110;52.584;13.408;2023-04-29T06:10:57;13.90;99.90
14014;DHT22;49110;52.584;13.408;2023-04-29T06:11:58;13.90;99.90
14014;DHT22;49110;52.584;13.408;2023-04-29T06:12:58;13.90;99.90
14014;DHT22;49110;52.584;13.408;2023-04-29T06:13:59;14.00;99.90
14014;DHT22;49110;52.584;13.408;2023-04-29T06:15:00;14.00;99.90
14014;DHT22;49110;52.584;13.408;2023-04-29T06:16:00;14.00;99.90
14014;DHT22;49110;52.584;13.408;2023-04-29T06:17:01;14.00;99.90
14014;DHT22;49110;52.584;13.408;2023-04-29T06:18:01;14.00;99.90
14014;DHT22;49110;52.584;13.408;2023-04-29T06:19:02;14.00;99.90
14014;DHT22;49110;52.584;13.408;2023-04-29T06:20:03;14.00;99.90
14014;DHT22;49110;52.584;13.408;2023-04-29T06:21:03;14.00;99.90
14014;DHT22;49110;52.584;13.408;2023-04-29T06:22:04;14.00;99.90
14014;DHT22;49110;52.584;13.408;2023-04-29T06:23:05;14.10;99.90
14014;DHT22;49110;52.584;13.408;2023-04-29T06:24:05;14.10;99.90
14014;DHT22;49110;52.584;13.408;2023-04-29T06:25:07;14.10;99.90
14014;DHT22;49110;52.584;13.408;2023-04-29T06:26:07;14.10;99.90
14014;DHT22;49110;52.584;13.408;2023-04-29T06:27:08;14.10;99.90
14014;DHT22;49110;52.584;13.408;2023-04-29T06:28:08;14.10;99.90
14014;DHT22;49110;52.584;13.408;2023-04-29T06:29:09;14.00;99.90
14014;DHT22;49110;52.584;13.408;2023-04-29T06:30:10;14.00;99.90
14014;DHT22;49110;52.584;13.408;2023-04-29T06:31:10;14.00;99.90
14014;DHT22;49110;52.584;13.408;2023-04-29T06:32:11;13.90;99.90
14014;DHT22;49110;52.584;13.408;2023-04-29T06:33:13;13.90;99.90